sensor_id;sensor_type;location;lat;lon;timestamp;pressure;altitude;pressure_sealevel;temperature;humidity
47260;BME280;32999;52.412;4.890;2023-01-30T00:04:56;101696.97;;;8.58;100.00
47260;BME280;32999;52.412;4.890;2023-01-30T00:09:57;101644.75;;;8.47;100.00
47260;BME280;32999;52.412;4.890;2023-01-30T00:14:59;101659.72;;;8.66;100.00
47260;BME280;32999;52.412;4.890;2023-01-30T00:20:03;101641.91;;;8.49;100.00
47260;BME280;32999;52.412;4.890;2023-01-30T00:25:05;101646.47;;;8.74;100.00
47260;BME280;32999;52.412;4.890;2023-01-30T00:30:08;101656.50;;;8.80;100.00
47260;BME280;32999;52.412;4.890;2023-01-30T00:35:11;101653.59;;;8.92;100.00
47260;BME280;32999;52.412;4.890;2023-01-30T00:40:13;101620.59;;;8.93;100.00
47260;BME280;32999;52.412;4.890;2023-01-30T00:45:15;101594.97;;;8.66;100.00
47260;BME280;32999;52.412;4.890;2023-01-30T00:50:41;101610.53;;;8.78;100.00
47260;BME280;32999;52.412;4.890;2023-01-30T00:55:46;101580.88;;;8.56;100.00
47260;BME280;32999;52.412;4.890;2023-01-30T01:00:51;101598.91;;;8.44;100.00
47260;BME280;32999;52.412;4.890;2023-01-30T01:06:05;101602.38;;;8.36;100.00
47260;BME280;32999;52.412;4.890;2023-01-30T01:11:07;101604.31;;;8.52;100.00
47260;BME280;32999;52.412;4.890;2023-01-30T01:16:09;101583.47;;;8.30;100.00
47260;BME280;32999;52.412;4.890;2023-01-30T01:21:29;101604.25;;;8.44;100.00
47260;BME280;32999;52.412;4.890;2023-01-30T01:26:33;101592.56;;;8.37;100.00
47260;BME280;32999;52.412;4.890;2023-01-30T01:31:47;101577.91;;;8.05;100.00
47260;BME280;32999;52.412;4.890;2023-01-30T03:13:43;101549.84;;;8.29;100.00
47260;BME280;32999;52.412;4.890;2023-01-30T03:18:48;101535.69;;;8.28;100.00
47260;BME280;32999;52.412;4.890;2023-01-30T03:23:53;101545.13;;;8.23;100.00
47260;BME280;32999;52.412;4.890;2023-01-30T03:28:57;101540.84;;;8.30;100.00
47260;BME280;32999;52.412;4.890;2023-01-30T03:33:58;101540.28;;;8.36;100.00
47260;BME280;32999;52.412;4.890;2023-01-30T03:44:42;101502.25;;;8.08;100.00
47260;BME280;32999;52.412;4.890;2023-01-30T03:49:44;101519.31;;;8.23;100.00
47260;BME280;32999;52.412;4.890;2023-01-30T03:54:46;101512.25;;;8.32;100.00
47260;BME280;32999;52.412;4.890;2023-01-30T03:59:49;101500.94;;;8.12;100.00
47260;BME280;32999;52.412;4.890;2023-01-30T04:04:51;101521.47;;;8.37;100.00
47260;BME280;32999;52.412;4.890;2023-01-30T04:09:58;101494.78;;;8.11;100.00
47260;BME280;32999;52.412;4.890;2023-01-30T04:15:08;101522.00;;;8.41;100.00
47260;BME280;32999;52.412;4.890;2023-01-30T04:20:11;101485.91;;;8.29;100.00
47260;BME280;32999;52.412;4.890;2023-01-30T04:25:13;101514.84;;;8.24;100.00
47260;BME280;32999;52.412;4.890;2023-01-30T05:00:55;101544.47;;;7.85;100.00
47260;BME280;32999;52.412;4.890;2023-01-30T06:48:07;101579.53;;;6.89;100.00
47260;BME280;32999;52.412;4.890;2023-01-30T06:59:24;101575.34;;;6.76;100.00
47260;BME280;32999;52.412;4.890;2023-01-30T07:04:44;101593.28;;;6.65;100.00
47260;BME280;32999;52.412;4.890;2023-01-30T07:10:38;101596.78;;;6.56;100.00
47260;BME280;32999;52.412;4.890;2023-01-30T07:15:56;101612.41;;;6.68;100.00
47260;BME280;32999;52.412;4.890;2023-01-30T07:21:07;101609.88;;;6.76;100.00
47260;BME280;32999;52.412;4.890;2023-01-30T07:26:13;101587.41;;;6.52;100.00
47260;BME280;32999;52.412;4.890;2023-01-30T07:31:55;101612.81;;;6.73;100.00
47260;BME280;32999;52.412;4.890;2023-01-30T07:37:06;101582.63;;;6.74;100.00
47260;BME280;32999;52.412;4.890;2023-01-30T07:47:55;101607.50;;;6.73;100.00
47260;BME280;32999;52.412;4.890;2023-01-30T07:53:18;101626.25;;;6.81;100.00
47260;BME280;32999;52.412;4.890;2023-01-30T07:58:20;101623.81;;;6.98;100.00
47260;BME280;32999;52.412;4.890;2023-01-30T08:03:25;101609.13;;;6.94;100.00
47260;BME280;32999;52.412;4.890;2023-01-30T08:08:27;101619.44;;;7.16;100.00
47260;BME280;32999;52.412;4.890;2023-01-30T08:13:50;101634.41;;;7.17;100.00
47260;BME280;32999;52.412;4.890;2023-01-30T08:24:58;101658.06;;;7.47;100.00
47260;BME280;32999;52.412;4.890;2023-01-30T08:30:09;101626.09;;;7.30;100.00
47260;BME280;32999;52.412;4.890;2023-01-30T08:35:28;101656.81;;;7.51;100.00
47260;BME280;32999;52.412;4.890;2023-01-30T08:58:35;101699.75;;;7.57;100.00
47260;BME280;32999;52.412;4.890;2023-01-30T09:16:34;101714.03;;;7.93;100.00
47260;BME280;32999;52.412;4.890;2023-01-30T09:33:50;101712.34;;;8.19;100.00
47260;BME280;32999;52.412;4.890;2023-01-30T09:39:24;101741.28;;;8.32;100.00
47260;BME280;32999;52.412;4.890;2023-01-30T10:15:57;101789.72;;;8.45;100.00
47260;BME280;32999;52.412;4.890;2023-01-30T10:39:19;101790.34;;;9.45;100.00
47260;BME280;32999;52.412;4.890;2023-01-30T10:44:23;101769.91;;;9.10;100.00
47260;BME280;32999;52.412;4.890;2023-01-30T10:49:39;101809.47;;;9.59;100.00
47260;BME280;32999;52.412;4.890;2023-01-30T10:54:54;101802.00;;;9.44;100.00
47260;BME280;32999;52.412;4.890;2023-01-30T11:00:00;101788.56;;;9.54;100.00
47260;BME280;32999;52.412;4.890;2023-01-30T11:05:12;101799.88;;;9.48;100.00
47260;BME280;32999;52.412;4.890;2023-01-30T11:10:21;101801.81;;;9.20;100.00
47260;BME280;32999;52.412;4.890;2023-01-30T11:15:23;101791.59;;;9.33;100.00
47260;BME280;32999;52.412;4.890;2023-01-30T11:20:25;101745.03;;;9.28;100.00
47260;BME280;32999;52.412;4.890;2023-01-30T11:25:28;101819.19;;;9.68;100.00
47260;BME280;32999;52.412;4.890;2023-01-30T11:30:33;101824.63;;;9.84;100.00
47260;BME280;32999;52.412;4.890;2023-01-30T11:35:41;101796.81;;;9.69;100.00
47260;BME280;32999;52.412;4.890;2023-01-30T11:40:46;101759.78;;;9.66;100.00
47260;BME280;32999;52.412;4.890;2023-01-30T11:45:48;101786.66;;;9.98;100.00
47260;BME280;32999;52.412;4.890;2023-01-30T11:50:57;101841.31;;;10.12;100.00
47260;BME280;32999;52.412;4.890;2023-01-30T11:56:08;101828.16;;;9.84;100.00
47260;BME280;32999;52.412;4.890;2023-01-30T12:01:15;101702.09;;;9.39;100.00
47260;BME280;32999;52.412;4.890;2023-01-30T12:06:21;101796.50;;;10.23;100.00
47260;BME280;32999;52.412;4.890;2023-01-30T12:11:31;101825.06;;;10.73;100.00
47260;BME280;32999;52.412;4.890;2023-01-30T12:17:01;101765.38;;;10.65;100.00
47260;BME280;32999;52.412;4.890;2023-01-30T12:22:14;101848.31;;;10.81;100.00
47260;BME280;32999;52.412;4.890;2023-01-30T12:27:24;101824.69;;;10.60;100.00
47260;BME280;32999;52.412;4.890;2023-01-30T12:32:31;101856.41;;;11.30;100.00
47260;BME280;32999;52.412;4.890;2023-01-30T12:37:43;101837.97;;;10.94;100.00
47260;BME280;32999;52.412;4.890;2023-01-30T12:48:41;101854.34;;;10.41;100.00
47260;BME280;32999;52.412;4.890;2023-01-30T12:53:55;101880.50;;;10.03;100.00
47260;BME280;32999;52.412;4.890;2023-01-30T12:59:06;101864.03;;;10.16;100.00
47260;BME280;32999;52.412;4.890;2023-01-30T13:04:19;101867.31;;;10.02;100.00
47260;BME280;32999;52.412;4.890;2023-01-30T13:09:37;101886.38;;;10.33;100.00
47260;BME280;32999;52.412;4.890;2023-01-30T13:14:47;101887.81;;;10.01;100.00
47260;BME280;32999;52.412;4.890;2023-01-30T13:19:58;101847.13;;;9.55;100.00
47260;BME280;32999;52.412;4.890;2023-01-30T13:25:13;101909.94;;;10.11;100.00
47260;BME280;32999;52.412;4.890;2023-01-30T13:30:20;101909.00;;;10.20;100.00
47260;BME280;32999;52.412;4.890;2023-01-30T13:35:29;101903.56;;;10.30;100.00
47260;BME280;32999;52.412;4.890;2023-01-30T13:40:37;101895.34;;;10.23;100.00
47260;BME280;32999;52.412;4.890;2023-01-30T13:45:43;101908.00;;;10.21;100.00
47260;BME280;32999;52.412;4.890;2023-01-30T13:50:54;101916.84;;;10.48;100.00
47260;BME280;32999;52.412;4.890;2023-01-30T13:56:06;101926.44;;;10.07;100.00
47260;BME280;32999;52.412;4.890;2023-01-30T14:01:13;101955.66;;;9.90;100.00
47260;BME280;32999;52.412;4.890;2023-01-30T14:06:33;101924.41;;;9.65;100.00
47260;BME280;32999;52.412;4.890;2023-01-30T14:11:41;101975.97;;;10.01;100.00
47260;BME280;32999;52.412;4.890;2023-01-30T14:16:49;101991.06;;;10.10;100.00
47260;BME280;32999;52.412;4.890;2023-01-30T14:21:56;101983.66;;;10.04;100.00
47260;BME280;32999;52.412;4.890;2023-01-30T14:27:00;102007.19;;;9.83;100.00
47260;BME280;32999;52.412;4.890;2023-01-30T14:37:48;102030.97;;;9.94;100.00
47260;BME280;32999;52.412;4.890;2023-01-30T14:48:43;102061.13;;;9.41;100.00
47260;BME280;32999;52.412;4.890;2023-01-30T14:53:49;102071.59;;;9.25;100.00
47260;BME280;32999;52.412;4.890;2023-01-30T14:59:00;102094.91;;;9.50;100.00
47260;BME280;32999;52.412;4.890;2023-01-30T15:04:04;102087.47;;;9.54;100.00
47260;BME280;32999;52.412;4.890;2023-01-30T15:09:06;102097.56;;;9.60;100.00
47260;BME280;32999;52.412;4.890;2023-01-30T15:14:11;102105.63;;;9.41;100.00
47260;BME280;32999;52.412;4.890;2023-01-30T15:19:36;102112.31;;;9.27;100.00
47260;BME280;32999;52.412;4.890;2023-01-30T15:25:10;102123.16;;;9.16;100.00
47260;BME280;32999;52.412;4.890;2023-01-30T15:30:21;102131.63;;;9.02;100.00
47260;BME280;32999;52.412;4.890;2023-01-30T15:35:27;102164.59;;;9.10;100.00
47260;BME280;32999;52.412;4.890;2023-01-30T15:40:30;102171.63;;;9.11;100.00
47260;BME280;32999;52.412;4.890;2023-01-30T15:45:38;102175.31;;;8.72;100.00
47260;BME280;32999;52.412;4.890;2023-01-30T15:50:57;102195.78;;;8.42;100.00
47260;BME280;32999;52.412;4.890;2023-01-30T15:56:15;102184.09;;;8.24;100.00
47260;BME280;32999;52.412;4.890;2023-01-30T16:01:38;102148.91;;;8.01;100.00
47260;BME280;32999;52.412;4.890;2023-01-30T16:06:47;102213.81;;;8.19;100.00
47260;BME280;32999;52.412;4.890;2023-01-30T16:11:52;102215.53;;;8.30;100.00
47260;BME280;32999;52.412;4.890;2023-01-30T16:16:57;102222.44;;;8.33;100.00
47260;BME280;32999;52.412;4.890;2023-01-30T16:22:16;102245.63;;;8.11;100.00
47260;BME280;32999;52.412;4.890;2023-01-30T16:27:26;102249.34;;;7.99;100.00
47260;BME280;32999;52.412;4.890;2023-01-30T16:32:51;102259.28;;;7.88;100.00
47260;BME280;32999;52.412;4.890;2023-01-30T16:44:17;102270.63;;;7.90;100.00
47260;BME280;32999;52.412;4.890;2023-01-30T16:49:21;102227.28;;;7.47;100.00
47260;BME280;32999;52.412;4.890;2023-01-30T16:54:27;102314.41;;;8.06;100.00
47260;BME280;32999;52.412;4.890;2023-01-30T17:11:32;102330.13;;;7.16;100.00
47260;BME280;32999;52.412;4.890;2023-01-30T18:48:34;102448.59;;;6.87;100.00
47260;BME280;32999;52.412;4.890;2023-01-30T18:54:28;102453.56;;;6.92;100.00
47260;BME280;32999;52.412;4.890;2023-01-30T19:30:41;102484.38;;;6.61;100.00
47260;BME280;32999;52.412;4.890;2023-01-30T20:30:07;102503.19;;;6.58;100.00
47260;BME280;32999;52.412;4.890;2023-01-30T20:35:12;102460.78;;;6.45;100.00
47260;BME280;32999;52.412;4.890;2023-01-30T20:40:34;102491.38;;;6.62;100.00
47260;BME280;32999;52.412;4.890;2023-01-30T20:46:20;102482.06;;;6.56;100.00
47260;BME280;32999;52.412;4.890;2023-01-30T22:03:46;102504.53;;;6.63;100.00
47260;BME280;32999;52.412;4.890;2023-01-30T22:51:25;102466.84;;;6.58;100.00
47260;BME280;32999;52.412;4.890;2023-01-30T22:59:27;102434.25;;;6.34;100.00
47260;BME280;32999;52.412;4.890;2023-01-30T23:02:42;102460.81;;;6.56;100.00
47260;BME280;32999;52.412;4.890;2023-01-30T23:08:40;102447.88;;;6.52;100.00
47260;BME280;32999;52.412;4.890;2023-01-30T23:15:06;102448.38;;;6.45;100.00
47260;BME280;32999;52.412;4.890;2023-01-30T23:20:34;102445.59;;;6.47;100.00
47260;BME280;32999;52.412;4.890;2023-01-30T23:26:13;102437.88;;;6.33;100.00
47260;BME280;32999;52.412;4.890;2023-01-30T23:37:11;102433.03;;;6.27;100.00
47260;BME280;32999;52.412;4.890;2023-01-30T23:42:56;102416.34;;;6.02;100.00
47260;BME280;32999;52.412;4.890;2023-01-30T23:47:58;102420.97;;;6.11;100.00
47260;BME280;32999;52.412;4.890;2023-01-30T23:53:03;102451.50;;;6.28;100.00
47260;BME280;32999;52.412;4.890;2023-01-30T23:58:20;102440.25;;;6.25;100.00
